イスラマバード の空港の天気 - METARとTAF

イスラマバード国際空港 ( OPRN / ISB ) - パキスタン Islamabad
飛行場実況気象(Metar)
観測時間01/19 23:30 PKT (01/19 18:30 UTC)
風向・風速静穏 0m/s
視程5000m
天気現象煙霧
なし
気温12℃
湿度-
気圧1018hPa
METAROPRN 191830Z 00000KT 5000 HZ NSC 12/0 Q1018 NOSIG RMK A3007
過去の天気等 Google飛行場航空写真 Wunderground天気予報

過去48時間のMETAR

飛行場予報(TAF)
発表時間: 1/19 20:30 PKT (1/19 15:30 UTC)
予報対象時間: 19日23時 PKT ~ 21日5時 PKT
風向・風速西南西 5m/s
視程4000m
天気現象
少しの塔状積雲 雲底高度 910m
全天の4割程度の雲 雲底高度 1220m
全天の8割程度の雲 雲底高度 2440m
20日19時 PKT ~ 20日21時 PKT に徐々に
風向・風速西南西 8m/s 瞬間風速 13m/s
視程5000m
天気現象雷雨
少しの積乱雲 雲底高度 610m
全天の4割程度の雲 雲底高度 910m
全天の8割程度の雲 雲底高度 2130m
TAF OPRN 191530Z 1918/2024 24010KT 4000 RA FEW030TCU SCT040 BKN080
TEMPO 1921/124 07010KT 3000 BR
BECMG 2014/2016 24015G25KT 5000 TSRA FEW020CB SCT030 BKN070